Time;durP1;ratioP1;P1;durP2;ratioP2;P2;SDS_P1;SDS_P2;PMS_P1;PMS_P2;Temp;Humidity;BMP_temperature;BMP_pressure;BME280_temperature;BME280_humidity;BME280_pressure;Samples;Min_cycle;Max_cycle;Signal;HPM_P1;HPM_P2
2022/12/02 00:02:06;;;;;;;21.52;10.98;;;7.70;76.30;;;;;;4997227;28;20049;-65
2022/12/02 00:04:32;;;;;;;22.60;11.65;;;7.70;76.30;;;;;;4991003;28;20386;-62
2022/12/02 00:06:59;;;;;;;21.30;12.15;;;7.60;76.30;;;;;;4991866;28;20453;-62
2022/12/02 00:09:31;;;;;;;30.15;12.48;;;7.70;76.20;;;;;;5003438;28;20446;-62
2022/12/02 00:11:57;;;;;;;21.30;10.43;;;7.60;76.10;;;;;;4998535;28;20023;-64
2022/12/02 00:14:26;;;;;;;20.38;10.82;;;7.60;76.10;;;;;;4992991;28;20284;-62
2022/12/02 00:16:52;;;;;;;20.65;10.70;;;7.50;76.10;;;;;;5006243;28;20022;-65
2022/12/02 00:19:18;;;;;;;22.00;11.98;;;7.50;76.10;;;;;;5005616;28;20064;-65
2022/12/02 00:21:44;;;;;;;23.25;9.70;;;7.50;76.00;;;;;;5007181;28;20053;-65
2022/12/02 00:24:09;;;;;;;23.60;10.63;;;7.50;75.90;;;;;;5022282;28;20149;-65
2022/12/02 00:26:35;;;;;;;17.35;8.85;;;7.50;75.80;;;;;;5005629;28;20061;-63
2022/12/02 00:29:01;;;;;;;17.90;9.00;;;7.50;75.70;;;;;;4993685;28;20034;-65
2022/12/02 00:31:26;;;;;;;18.05;9.50;;;7.50;75.70;;;;;;5017025;28;20037;-65
2022/12/02 00:33:52;;;;;;;17.10;9.90;;;7.50;75.60;;;;;;4993197;28;20034;-61
2022/12/02 00:36:18;;;;;;;23.60;12.00;;;7.50;75.50;;;;;;4998779;28;20033;-61
2022/12/02 00:38:44;;;;;;;23.52;10.52;;;7.50;75.50;;;;;;5009392;28;20045;-64
2022/12/02 00:41:09;;;;;;;20.73;10.57;;;7.50;75.50;;;;;;5004121;28;20033;-65
2022/12/02 00:46:31;;;;;;;20.55;9.13;;;7.50;75.40;;;;;;5020804;28;20054;-64
2022/12/02 00:48:59;;;;;;;18.48;9.30;;;7.50;75.40;;;;;;4994031;28;20035;-65
2022/12/02 00:51:25;;;;;;;16.98;10.00;;;7.50;75.40;;;;;;4984866;28;20493;-65
2022/12/02 00:53:51;;;;;;;22.80;11.68;;;7.50;75.40;;;;;;5000905;28;20596;-62
2022/12/02 00:56:16;;;;;;;14.70;9.55;;;7.50;75.40;;;;;;5002702;28;20050;-62
2022/12/02 00:58:42;;;;;;;20.15;11.13;;;7.50;75.30;;;;;;5004443;28;20160;-65
2022/12/02 01:01:08;;;;;;;20.70;10.25;;;7.50;75.30;;;;;;5005822;28;20462;-65
2022/12/02 01:03:33;;;;;;;18.83;10.85;;;7.50;75.30;;;;;;5011506;28;20030;-65
2022/12/02 01:05:59;;;;;;;19.40;9.05;;;7.50;75.30;;;;;;4996175;28;20070;-65
2022/12/02 01:08:26;;;;;;;19.80;10.10;;;7.50;75.90;;;;;;5005392;28;20038;-65
2022/12/02 01:10:56;;;;;;;22.73;10.38;;;7.50;75.20;;;;;;4992828;28;20022;-63
2022/12/02 01:13:22;;;;;;;16.20;9.57;;;7.50;75.20;;;;;;4994171;28;20030;-63
2022/12/02 01:15:48;;;;;;;18.10;11.23;;;7.40;75.10;;;;;;5008962;28;20453;-63
2022/12/02 01:18:14;;;;;;;15.60;10.45;;;7.40;75.10;;;;;;5009482;28;20113;-63
2022/12/02 01:20:40;;;;;;;22.35;9.57;;;7.40;75.10;;;;;;4998005;28;20054;-61
2022/12/02 01:23:06;;;;;;;16.40;8.57;;;7.50;75.10;;;;;;4998782;28;20041;-61
2022/12/02 01:25:31;;;;;;;17.83;9.35;;;7.40;75.00;;;;;;4994984;28;20540;-61
2022/12/02 01:27:57;;;;;;;19.13;9.90;;;7.40;75.00;;;;;;4995940;28;20023;-61
2022/12/02 01:30:23;;;;;;;19.30;10.73;;;7.40;75.00;;;;;;5005735;28;20026;-61
2022/12/02 01:32:48;;;;;;;18.42;9.52;;;7.40;75.10;;;;;;5011001;28;20068;-64
2022/12/02 01:35:14;;;;;;;18.60;11.20;;;7.40;75.10;;;;;;5012881;28;20026;-65
2022/12/02 01:37:40;;;;;;;22.58;10.00;;;7.30;75.10;;;;;;4999575;28;20074;-65
2022/12/02 01:40:08;;;;;;;15.75;8.95;;;7.30;75.20;;;;;;4994484;28;20042;-62
2022/12/02 01:42:34;;;;;;;18.45;9.32;;;7.30;75.10;;;;;;4994463;28;20065;-62
2022/12/02 01:45:00;;;;;;;24.00;11.60;;;7.30;75.10;;;;;;5003743;28;20087;-62
2022/12/02 01:47:26;;;;;;;17.80;10.35;;;7.30;75.10;;;;;;5006257;28;20029;-62
2022/12/02 01:49:52;;;;;;;19.38;9.52;;;7.30;75.10;;;;;;5009735;28;20057;-62
2022/12/02 01:52:18;;;;;;;24.27;11.98;;;7.40;75.10;;;;;;5007652;28;20469;-62
2022/12/02 01:54:44;;;;;;;16.73;9.98;;;7.30;75.00;;;;;;5007304;28;20390;-62
2022/12/02 01:57:13;;;;;;;18.10;10.75;;;7.30;75.00;;;;;;5002303;28;20071;-62
2022/12/02 01:59:42;;;;;;;20.52;10.63;;;7.30;75.00;;;;;;5000432;28;20038;-65
2022/12/02 02:02:31;;;;;;;18.33;9.45;;;7.30;75.10;;;;;;5003636;28;20045;-65
2022/12/02 02:05:01;;;;;;;17.75;8.75;;;7.30;75.10;;;;;;4985074;28;20355;-64
2022/12/02 02:07:29;;;;;;;16.23;9.07;;;7.30;75.10;;;;;;5007427;28;20022;-65
2022/12/02 02:09:55;;;;;;;19.50;10.63;;;7.30;75.10;;;;;;4998384;28;20046;-64
2022/12/02 02:12:22;;;;;;;20.55;10.05;;;7.20;75.00;;;;;;5009037;28;20034;-65
2022/12/02 02:14:48;;;;;;;17.67;8.88;;;7.20;75.00;;;;;;4980232;28;20015;-65
2022/12/02 02:17:14;;;;;;;17.80;9.65;;;7.20;75.10;;;;;;4996225;28;20370;-65
2022/12/02 02:19:40;;;;;;;15.68;9.23;;;7.20;75.10;;;;;;5005610;28;20058;-65
2022/12/02 02:22:13;;;;;;;17.92;9.93;;;7.20;75.00;;;;;;5009741;28;20038;-64
2022/12/02 02:24:39;;;;;;;17.80;9.07;;;7.20;75.00;;;;;;5008467;28;20023;-64
2022/12/02 02:27:04;;;;;;;18.70;10.05;;;7.10;75.00;;;;;;5010384;28;20080;-64
2022/12/02 02:29:30;;;;;;;15.52;9.10;;;7.10;75.00;;;;;;5001891;28;20038;-65
2022/12/02 02:31:56;;;;;;;19.95;10.43;;;7.10;75.00;;;;;;4998595;28;20037;-65
2022/12/02 02:34:22;;;;;;;29.88;10.10;;;7.10;75.00;;;;;;5025029;28;20320;-64
2022/12/02 02:36:47;;;;;;;18.90;8.07;;;7.10;75.10;;;;;;4997090;28;20350;-64
2022/12/02 02:39:13;;;;;;;18.60;8.18;;;7.00;75.10;;;;;;4995986;28;20038;-64
2022/12/02 02:41:39;;;;;;;20.25;10.80;;;7.00;75.10;;;;;;5005931;28;20050;-64
2022/12/02 02:44:05;;;;;;;18.02;9.95;;;6.90;75.20;;;;;;5013465;28;20026;-64
2022/12/02 02:46:31;;;;;;;15.02;8.40;;;6.90;75.20;;;;;;4991850;28;20022;-64
2022/12/02 02:48:57;;;;;;;20.00;9.25;;;6.90;75.20;;;;;;5012642;28;20034;-62
2022/12/02 02:51:23;;;;;;;17.83;7.10;;;7.00;75.20;;;;;;5002216;28;20026;-61
2022/12/02 02:53:49;;;;;;;17.50;9.02;;;6.90;75.00;;;;;;4993261;28;20116;-65
2022/12/02 02:56:16;;;;;;;15.15;9.27;;;7.00;75.00;;;;;;5009360;28;20516;-64
2022/12/02 02:58:42;;;;;;;10.35;6.75;;;7.00;75.00;;;;;;5010912;28;20041;-66
2022/12/02 03:01:26;;;;;;;14.38;7.85;;;7.00;75.00;;;;;;5003004;28;20030;-66
2022/12/02 03:03:59;;;;;;;17.45;8.35;;;7.00;74.90;;;;;;4989132;28;20386;-63
2022/12/02 03:06:27;;;;;;;13.50;8.48;;;7.00;74.90;;;;;;4999435;28;20022;-65
2022/12/02 03:08:54;;;;;;;12.65;8.07;;;7.00;75.00;;;;;;5012035;28;20518;-65
2022/12/02 03:11:20;;;;;;;16.63;8.82;;;7.00;75.00;;;;;;5009633;28;20030;-65
2022/12/02 03:13:49;;;;;;;14.88;7.78;;;7.00;75.00;;;;;;5011231;28;20444;-65
2022/12/02 03:16:17;;;;;;;12.60;7.50;;;6.90;75.00;;;;;;5000968;28;20409;-65
2022/12/02 03:18:46;;;;;;;20.48;8.20;;;6.90;75.00;;;;;;5011717;28;20106;-65
2022/12/02 03:21:15;;;;;;;12.85;6.60;;;6.90;75.00;;;;;;4995218;28;20026;-65
2022/12/02 03:23:41;;;;;;;16.75;7.35;;;7.00;74.90;;;;;;5002021;28;20151;-65
2022/12/02 03:26:07;;;;;;;13.55;7.93;;;7.00;74.90;;;;;;4997074;28;20019;-65
2022/12/02 03:28:33;;;;;;;15.40;7.75;;;7.00;74.90;;;;;;5001666;28;20053;-65
2022/12/02 03:31:00;;;;;;;12.75;8.23;;;7.00;74.90;;;;;;5003515;28;20109;-62
2022/12/02 03:33:26;;;;;;;13.95;7.43;;;6.90;74.80;;;;;;5007764;28;20088;-62
2022/12/02 03:35:52;;;;;;;20.70;8.05;;;7.00;74.80;;;;;;5005798;28;20515;-62
2022/12/02 03:38:18;;;;;;;13.95;6.30;;;6.90;74.80;;;;;;5008002;28;20045;-62
2022/12/02 03:40:45;;;;;;;12.93;6.15;;;6.90;74.80;;;;;;5001676;28;20509;-62
2022/12/02 03:43:10;;;;;;;15.13;7.50;;;6.90;74.80;;;;;;5007800;28;20033;-62
2022/12/02 03:45:36;;;;;;;12.13;7.40;;;6.90;74.90;;;;;;4999108;28;20117;-62
2022/12/02 03:48:05;;;;;;;10.90;7.20;;;6.90;74.90;;;;;;4996076;28;20027;-62
2022/12/02 03:50:31;;;;;;;17.98;7.78;;;6.90;74.90;;;;;;5002746;28;20027;-62
2022/12/02 03:52:56;;;;;;;16.55;7.95;;;6.90;74.90;;;;;;5004924;28;20104;-65
2022/12/02 03:55:22;;;;;;;15.70;9.25;;;6.90;74.90;;;;;;5002473;28;20109;-65
2022/12/02 03:57:48;;;;;;;11.00;6.88;;;6.90;74.90;;;;;;4993077;28;20493;-60
2022/12/02 04:00:14;;;;;;;11.30;6.30;;;6.90;74.90;;;;;;4996580;28;20030;-61
2022/12/02 04:02:40;;;;;;;13.07;7.57;;;6.90;74.80;;;;;;4997668;28;20748;-61
2022/12/02 04:05:07;;;;;;;13.88;8.20;;;6.90;74.70;;;;;;4991965;28;20030;-61
2022/12/02 04:07:32;;;;;;;14.85;6.22;;;6.80;74.70;;;;;;4991543;28;20406;-62
2022/12/02 04:09:58;;;;;;;17.70;8.60;;;6.80;74.80;;;;;;4991985;28;20037;-64
2022/12/02 04:12:24;;;;;;;15.50;8.88;;;6.80;74.80;;;;;;4990432;28;20477;-62
2022/12/02 04:14:49;;;;;;;12.73;6.82;;;6.80;74.80;;;;;;4989599;28;20030;-62
2022/12/02 04:17:15;;;;;;;11.77;5.85;;;6.80;74.80;;;;;;4990384;28;20397;-62
2022/12/02 04:19:40;;;;;;;10.65;6.20;;;6.80;74.80;;;;;;5000016;28;20101;-62
2022/12/02 04:22:06;;;;;;;18.75;7.82;;;6.80;74.90;;;;;;5023196;28;20037;-63
2022/12/02 04:24:32;;;;;;;14.88;7.32;;;6.80;74.90;;;;;;5003106;28;20033;-62
2022/12/02 04:26:57;;;;;;;9.30;6.22;;;6.70;75.00;;;;;;5012699;28;20049;-62
2022/12/02 04:29:23;;;;;;;13.18;6.00;;;6.70;75.00;;;;;;4998511;28;20065;-62
2022/12/02 04:31:49;;;;;;;10.70;6.13;;;6.70;75.00;;;;;;5007359;28;20076;-65
2022/12/02 04:34:14;;;;;;;11.07;6.45;;;6.70;75.10;;;;;;4998376;28;20515;-65
2022/12/02 04:36:40;;;;;;;9.52;5.68;;;6.70;75.10;;;;;;4996846;28;20037;-62
2022/12/02 04:39:06;;;;;;;14.20;7.30;;;6.70;75.10;;;;;;4995488;28;20072;-62
2022/12/02 04:41:31;;;;;;;8.38;4.97;;;6.70;75.20;;;;;;5005981;28;20041;-65
2022/12/02 04:43:57;;;;;;;13.30;6.00;;;6.70;75.10;;;;;;5005415;28;20026;-65
2022/12/02 04:46:23;;;;;;;9.23;5.88;;;6.60;75.00;;;;;;5001844;28;20057;-65
2022/12/02 04:48:48;;;;;;;9.73;6.07;;;6.60;75.10;;;;;;5010681;28;20034;-65
2022/12/02 04:51:14;;;;;;;11.85;6.32;;;6.60;75.20;;;;;;4975201;28;20038;-65
2022/12/02 04:53:40;;;;;;;13.00;6.25;;;6.60;75.20;;;;;;4988909;28;20125;-64
2022/12/02 04:56:06;;;;;;;13.73;5.70;;;6.60;75.20;;;;;;5001828;28;20619;-62
2022/12/02 04:58:31;;;;;;;15.32;6.95;;;6.60;75.20;;;;;;5001339;28;20034;-64
2022/12/02 05:00:57;;;;;;;7.97;4.60;;;6.60;75.10;;;;;;4992421;28;20053;-65
2022/12/02 05:03:22;;;;;;;8.77;5.00;;;6.60;75.10;;;;;;5006622;28;20026;-62
2022/12/02 05:05:48;;;;;;;11.73;5.20;;;6.60;75.00;;;;;;4998159;28;20041;-64
2022/12/02 05:08:14;;;;;;;13.68;6.00;;;6.60;75.00;;;;;;5008022;28;20084;-64
2022/12/02 05:10:40;;;;;;;8.15;5.68;;;6.50;75.00;;;;;;5003671;28;20033;-64
2022/12/02 05:13:05;;;;;;;12.77;5.93;;;6.50;75.00;;;;;;5002137;28;20374;-62
2022/12/02 05:15:31;;;;;;;11.10;5.15;;;6.50;75.00;;;;;;5006178;28;20068;-64
2022/12/02 05:17:57;;;;;;;10.73;5.13;;;6.50;75.00;;;;;;5005700;28;20033;-64
2022/12/02 05:20:22;;;;;;;8.93;5.53;;;6.50;75.00;;;;;;4996027;28;20076;-64
2022/12/02 05:23:02;;;;;;;9.30;5.65;;;6.50;75.00;;;;;;4995326;28;20026;-64
2022/12/02 05:25:28;;;;;;;9.40;4.95;;;6.50;75.00;;;;;;4991026;28;20103;-64
2022/12/02 05:27:54;;;;;;;7.60;4.60;;;6.50;75.00;;;;;;5026599;28;20501;-62
2022/12/02 05:30:20;;;;;;;8.95;6.25;;;6.50;74.90;;;;;;4994926;28;20393;-61
2022/12/02 05:32:46;;;;;;;11.50;5.75;;;6.60;74.90;;;;;;4996843;28;20030;-61
2022/12/02 05:35:11;;;;;;;8.25;4.35;;;6.60;74.80;;;;;;4996781;28;20494;-61
2022/12/02 05:37:37;;;;;;;8.75;5.80;;;6.60;74.80;;;;;;4998778;28;20068;-61
2022/12/02 05:40:03;;;;;;;9.30;6.38;;;6.50;74.80;;;;;;4995810;28;20132;-64
2022/12/02 05:42:29;;;;;;;12.77;5.90;;;6.50;74.80;;;;;;4996251;28;20178;-64
2022/12/02 05:44:58;;;;;;;10.45;6.20;;;6.50;74.80;;;;;;4997001;28;20112;-62
2022/12/02 05:47:29;;;;;;;12.02;5.43;;;6.50;74.80;;;;;;4992137;28;20517;-61
2022/12/02 05:49:55;;;;;;;10.65;5.60;;;6.50;74.80;;;;;;4993743;28;20378;-62
2022/12/02 05:52:23;;;;;;;12.38;6.72;;;6.50;74.80;;;;;;4998108;28;20036;-64
2022/12/02 05:54:52;;;;;;;10.98;5.38;;;6.40;74.80;;;;;;4986479;28;20543;-64
2022/12/02 05:57:23;;;;;;;10.73;5.90;;;6.40;74.80;;;;;;4996079;28;20022;-64
2022/12/02 05:59:50;;;;;;;14.70;7.13;;;6.40;74.90;;;;;;4996392;28;20034;-62
2022/12/02 06:02:32;;;;;;;14.05;6.55;;;6.40;75.00;;;;;;4997269;28;20023;-64
2022/12/02 06:04:58;;;;;;;13.88;6.90;;;6.30;75.00;;;;;;4991112;28;20446;-65
2022/12/02 06:07:23;;;;;;;12.40;5.95;;;6.30;75.20;;;;;;4999496;28;20112;-65
2022/12/02 06:09:52;;;;;;;11.15;6.07;;;6.30;75.20;;;;;;4979237;28;20312;-62
2022/12/02 06:12:19;;;;;;;14.10;6.40;;;6.30;75.20;;;;;;4999368;28;20405;-62
2022/12/02 06:14:53;;;;;;;14.98;6.03;;;6.30;75.10;;;;;;4998672;28;20104;-65
2022/12/02 06:17:20;;;;;;;10.38;5.63;;;6.30;75.10;;;;;;4992077;28;20026;-65
2022/12/02 06:19:56;;;;;;;10.13;6.43;;;6.30;75.20;;;;;;4989797;28;20035;-65
2022/12/02 06:22:28;;;;;;;11.57;5.30;;;6.30;75.20;;;;;;4989560;28;20038;-65
2022/12/02 06:24:56;;;;;;;9.82;5.15;;;6.20;75.20;;;;;;4996117;28;20036;-67
2022/12/02 06:27:22;;;;;;;6.50;4.78;;;6.20;75.40;;;;;;4992846;28;20031;-66
2022/12/02 06:30:06;;;;;;;10.50;6.20;;;6.20;75.40;;;;;;4992829;28;20537;-64
2022/12/02 06:32:44;;;;;;;8.18;5.55;;;6.20;75.30;;;;;;4990739;28;20045;-64
2022/12/02 06:35:21;;;;;;;12.38;4.47;;;6.10;75.40;;;;;;4993458;28;20113;-61
2022/12/02 06:37:48;;;;;;;8.32;4.85;;;6.10;75.50;;;;;;5000657;28;20050;-62
2022/12/02 06:40:31;;;;;;;12.35;5.40;;;6.10;75.60;;;;;;5000406;28;20022;-61
2022/12/02 06:42:59;;;;;;;10.38;5.80;;;6.20;75.50;;;;;;5001082;28;20030;-64
2022/12/02 06:45:30;;;;;;;12.38;6.47;;;6.10;75.60;;;;;;4995714;28;20109;-62
2022/12/02 06:48:01;;;;;;;10.10;6.28;;;6.10;75.70;;;;;;5006881;28;20080;-65
2022/12/02 06:50:36;;;;;;;11.18;6.30;;;6.10;75.70;;;;;;4997718;28;20038;-64
2022/12/02 06:53:09;;;;;;;12.45;6.65;;;6.10;75.80;;;;;;4995737;28;20502;-64
2022/12/02 06:55:37;;;;;;;10.00;6.03;;;6.10;75.80;;;;;;5000837;28;20037;-61
2022/12/02 06:58:33;;;;;;;10.70;6.18;;;6.10;75.80;;;;;;4997781;28;20366;-61
2022/12/02 07:01:14;;;;;;;11.80;5.90;;;6.10;75.80;;;;;;5029567;28;20041;-62
2022/12/02 07:03:55;;;;;;;8.75;5.13;;;6.10;75.90;;;;;;4997332;28;20500;-61
2022/12/02 07:06:26;;;;;;;10.43;5.82;;;6.10;75.90;;;;;;4997439;28;20023;-61
2022/12/02 07:08:54;;;;;;;12.57;6.90;;;6.10;75.80;;;;;;4999650;28;20038;-64
2022/12/02 07:11:48;;;;;;;9.68;6.03;;;6.10;75.90;;;;;;4996974;28;20158;-64
2022/12/02 07:14:35;;;;;;;8.35;5.32;;;6.00;75.90;;;;;;4994058;28;20050;-64
2022/12/02 07:17:24;;;;;;;12.15;6.25;;;6.00;76.00;;;;;;5002195;28;20033;-64
2022/12/02 07:19:55;;;;;;;12.20;6.25;;;6.00;76.00;;;;;;4996787;28;20037;-64
2022/12/02 07:22:24;;;;;;;9.10;5.10;;;5.90;76.20;;;;;;4989139;28;20372;-64
2022/12/02 07:24:57;;;;;;;11.38;5.95;;;5.90;76.30;;;;;;4995830;28;20056;-63
2022/12/02 07:27:30;;;;;;;8.32;6.43;;;6.00;76.30;;;;;;4999834;28;20432;-63
2022/12/02 07:29:58;;;;;;;14.20;6.18;;;6.00;76.40;;;;;;4998132;28;20441;-62
2022/12/02 07:32:24;;;;;;;10.27;6.38;;;6.00;76.50;;;;;;5001598;28;20389;-62
2022/12/02 07:34:49;;;;;;;17.20;6.32;;;6.00;76.50;;;;;;4999671;28;20046;-62
2022/12/02 07:37:15;;;;;;;10.60;5.97;;;6.00;76.50;;;;;;4993270;28;20173;-64
2022/12/02 07:39:41;;;;;;;9.07;5.90;;;6.00;76.40;;;;;;4989390;28;20034;-64
2022/12/02 07:42:07;;;;;;;10.80;6.85;;;6.00;76.40;;;;;;5002534;28;20038;-62
2022/12/02 07:44:32;;;;;;;11.45;6.43;;;6.00;76.40;;;;;;4994364;28;20023;-63
2022/12/02 07:46:58;;;;;;;8.35;5.65;;;6.00;76.60;;;;;;4991305;28;20039;-63
2022/12/02 07:49:24;;;;;;;12.93;6.80;;;6.00;76.50;;;;;;4994169;28;20057;-62
2022/12/02 07:51:50;;;;;;;10.20;6.95;;;6.00;76.60;;;;;;4999991;28;20034;-62
2022/12/02 07:54:15;;;;;;;10.10;6.53;;;6.00;76.60;;;;;;4993504;28;20022;-62
2022/12/02 07:56:41;;;;;;;10.88;5.70;;;6.00;76.70;;;;;;4996541;28;20044;-63
2022/12/02 07:59:07;;;;;;;14.48;6.70;;;5.90;76.70;;;;;;4990016;28;20069;-62
2022/12/02 08:01:33;;;;;;;10.73;6.38;;;5.90;76.80;;;;;;4986919;28;20050;-62
2022/12/02 08:03:58;;;;;;;10.02;6.22;;;5.90;77.10;;;;;;4989829;28;20035;-67
2022/12/02 08:06:24;;;;;;;10.40;5.95;;;5.90;77.10;;;;;;5020718;28;20052;-63
2022/12/02 08:08:50;;;;;;;16.42;6.50;;;5.90;77.10;;;;;;5022907;28;20035;-63
2022/12/02 08:11:15;;;;;;;8.85;6.30;;;5.90;77.20;;;;;;4996346;28;20365;-64
2022/12/02 08:13:41;;;;;;;13.20;5.40;;;5.80;77.20;;;;;;4996810;28;20085;-64
2022/12/02 08:16:07;;;;;;;11.88;6.70;;;5.90;77.30;;;;;;4991903;28;20523;-65
2022/12/02 08:18:33;;;;;;;17.75;7.03;;;5.90;77.30;;;;;;4990464;28;20031;-66
2022/12/02 08:20:59;;;;;;;15.30;6.13;;;5.80;77.30;;;;;;4989863;28;20034;-65
2022/12/02 08:23:25;;;;;;;13.90;6.03;;;5.80;77.30;;;;;;5002236;28;20037;-65
2022/12/02 08:25:50;;;;;;;13.85;7.80;;;5.80;77.30;;;;;;4994943;28;20126;-64
2022/12/02 08:28:16;;;;;;;12.20;4.97;;;5.90;77.40;;;;;;4998102;28;20041;-66
2022/12/02 08:30:42;;;;;;;11.68;6.30;;;5.90;77.20;;;;;;4994180;28;20045;-66
2022/12/02 08:33:07;;;;;;;12.80;6.05;;;5.90;77.20;;;;;;5000324;28;20034;-64
2022/12/02 08:35:33;;;;;;;13.38;7.50;;;5.90;77.20;;;;;;5008025;28;20040;-65
2022/12/02 08:37:59;;;;;;;17.75;7.65;;;5.90;77.30;;;;;;4999781;28;20049;-63
2022/12/02 08:40:24;;;;;;;13.45;8.32;;;5.90;77.30;;;;;;5007115;28;20120;-63
2022/12/02 08:42:50;;;;;;;15.98;6.88;;;5.90;77.30;;;;;;5006534;28;20036;-63
2022/12/02 08:45:16;;;;;;;10.65;6.82;;;5.90;77.30;;;;;;4990604;28;20389;-63
2022/12/02 08:47:41;;;;;;;14.98;7.63;;;5.90;77.30;;;;;;4998860;28;20381;-63
2022/12/02 08:50:08;;;;;;;15.95;7.45;;;5.90;77.30;;;;;;4996758;28;20042;-64
2022/12/02 08:52:33;;;;;;;25.40;8.20;;;5.90;77.40;;;;;;4997708;28;20030;-63
2022/12/02 08:54:59;;;;;;;13.45;7.90;;;5.90;77.50;;;;;;4996395;28;20301;-63
2022/12/02 08:57:25;;;;;;;17.10;7.85;;;5.90;77.50;;;;;;5008027;28;20144;-63
2022/12/02 08:59:51;;;;;;;11.63;7.07;;;5.90;77.50;;;;;;5004285;28;20044;-63
2022/12/02 09:02:16;;;;;;;15.30;7.22;;;5.90;77.50;;;;;;4997931;28;20042;-63
2022/12/02 09:04:42;;;;;;;16.73;6.70;;;5.90;77.40;;;;;;4994634;28;20512;-64
2022/12/02 09:07:08;;;;;;;10.48;6.78;;;6.00;77.40;;;;;;5004052;28;20478;-64
2022/12/02 09:09:34;;;;;;;14.57;6.90;;;6.00;77.40;;;;;;4998996;28;20112;-65
2022/12/02 09:12:01;;;;;;;23.17;9.40;;;6.00;77.40;;;;;;4995693;28;20121;-64
2022/12/02 09:14:27;;;;;;;17.63;8.77;;;6.00;77.40;;;;;;4995961;28;20502;-65
2022/12/02 09:16:53;;;;;;;22.17;7.65;;;6.00;77.40;;;;;;5007196;28;20022;-64
2022/12/02 09:19:19;;;;;;;15.55;7.88;;;5.90;77.30;;;;;;5008287;28;20080;-65
2022/12/02 09:21:44;;;;;;;15.45;6.75;;;6.00;77.30;;;;;;5011992;28;20057;-63
2022/12/02 09:24:10;;;;;;;11.23;6.43;;;6.00;77.20;;;;;;5012710;28;20034;-63
2022/12/02 09:26:36;;;;;;;11.60;6.93;;;6.10;77.30;;;;;;5013957;28;20105;-63
2022/12/02 09:29:02;;;;;;;10.52;5.25;;;6.10;77.20;;;;;;5012778;28;20037;-63
2022/12/02 09:31:27;;;;;;;10.60;6.68;;;6.10;77.10;;;;;;5011561;28;20029;-63
2022/12/02 09:33:53;;;;;;;11.98;7.28;;;6.10;77.10;;;;;;4997891;28;20065;-63
2022/12/02 09:36:19;;;;;;;15.75;7.25;;;6.10;77.00;;;;;;5004708;28;20025;-63
2022/12/02 09:38:45;;;;;;;12.55;7.15;;;6.10;77.00;;;;;;5011824;28;20050;-63
2022/12/02 09:41:11;;;;;;;11.02;7.03;;;6.20;77.00;;;;;;5012946;28;20541;-63
2022/12/02 09:43:37;;;;;;;15.93;6.07;;;6.20;76.80;;;;;;5013132;28;20105;-63
2022/12/02 09:46:05;;;;;;;16.40;7.90;;;6.20;76.70;;;;;;5011737;28;20109;-63
2022/12/02 09:48:31;;;;;;;10.30;7.18;;;6.20;77.30;;;;;;5012029;28;20041;-63
2022/12/02 09:50:58;;;;;;;14.73;7.03;;;6.20;76.60;;;;;;5013126;28;20022;-63
2022/12/02 09:53:30;;;;;;;15.38;7.65;;;6.30;76.70;;;;;;5006542;28;20034;-63
2022/12/02 09:55:56;;;;;;;14.75;6.75;;;6.30;76.50;;;;;;5022049;28;20022;-64
2022/12/02 09:58:22;;;;;;;18.75;6.82;;;6.30;76.40;;;;;;5012730;28;20030;-64
2022/12/02 10:00:50;;;;;;;12.18;6.38;;;6.30;76.50;;;;;;5011839;28;20095;-64
2022/12/02 10:03:19;;;;;;;10.63;6.05;;;6.40;76.50;;;;;;5012242;28;20030;-64
2022/12/02 10:05:46;;;;;;;9.60;6.22;;;6.40;76.40;;;;;;5012422;28;20030;-64
2022/12/02 10:08:24;;;;;;;14.38;6.65;;;6.40;76.10;;;;;;5010319;28;20022;-64
2022/12/02 10:10:51;;;;;;;14.20;6.30;;;6.40;76.10;;;;;;5009043;28;20014;-64
2022/12/02 10:13:18;;;;;;;13.52;6.88;;;6.40;76.10;;;;;;5012034;28;20037;-63
2022/12/02 10:15:45;;;;;;;13.85;8.07;;;6.40;76.50;;;;;;5011957;28;20315;-63
2022/12/02 10:18:20;;;;;;;15.35;7.43;;;6.40;75.70;;;;;;5011753;28;20033;-63
2022/12/02 10:20:49;;;;;;;10.77;6.00;;;6.40;75.70;;;;;;5010776;28;20030;-63
2022/12/02 10:23:18;;;;;;;17.58;7.60;;;6.40;75.60;;;;;;4999247;28;20037;-63
2022/12/02 10:26:08;;;;;;;16.08;6.75;;;6.40;75.50;;;;;;5010512;28;20495;-63
2022/12/02 10:28:35;;;;;;;16.98;6.50;;;6.40;75.50;;;;;;5012243;28;20026;-63
2022/12/02 10:31:13;;;;;;;10.65;5.50;;;6.40;75.60;;;;;;5003265;28;20014;-63
2022/12/02 10:33:46;;;;;;;19.88;7.35;;;6.40;75.60;;;;;;4992683;28;20033;-63
2022/12/02 10:36:11;;;;;;;13.30;7.13;;;6.30;75.50;;;;;;4991565;28;20061;-63
2022/12/02 10:38:44;;;;;;;17.17;7.18;;;6.40;75.60;;;;;;4993475;28;20123;-63
2022/12/02 10:41:19;;;;;;;11.68;6.45;;;6.30;75.50;;;;;;4991682;28;20560;-63
2022/12/02 10:44:04;;;;;;;17.52;7.93;;;6.30;75.50;;;;;;4992112;28;20030;-62
2022/12/02 10:46:31;;;;;;;15.45;7.00;;;6.30;75.40;;;;;;4992870;28;20110;-62
2022/12/02 10:49:25;;;;;;;16.75;7.15;;;6.20;75.30;;;;;;4999359;28;20049;-62
2022/12/02 10:51:52;;;;;;;12.70;6.10;;;6.20;75.20;;;;;;4995344;28;20067;-63
2022/12/02 10:54:30;;;;;;;14.15;6.63;;;6.10;75.50;;;;;;5011973;28;20415;-62
2022/12/02 10:56:58;;;;;;;19.77;6.35;;;6.10;75.40;;;;;;4980635;28;20026;-63
2022/12/02 10:59:24;;;;;;;19.13;7.35;;;6.10;75.40;;;;;;4993184;28;20042;-61
2022/12/02 11:01:50;;;;;;;15.95;7.00;;;6.10;75.30;;;;;;5002046;28;20456;-62
2022/12/02 11:04:16;;;;;;;12.20;7.35;;;6.00;75.40;;;;;;5037440;28;20050;-62
2022/12/02 11:06:43;;;;;;;12.20;6.13;;;6.10;75.40;;;;;;5012044;28;20068;-62
2022/12/02 11:09:18;;;;;;;14.00;6.18;;;6.10;75.40;;;;;;5009789;28;20112;-62
2022/12/02 11:11:45;;;;;;;14.63;7.20;;;6.10;75.20;;;;;;5011157;28;20091;-62
2022/12/02 11:14:36;;;;;;;12.02;6.93;;;6.10;75.20;;;;;;4993156;28;20026;-62
2022/12/02 11:17:10;;;;;;;13.20;7.20;;;6.10;75.20;;;;;;4998901;28;20030;-61
2022/12/02 11:19:36;;;;;;;18.45;6.43;;;6.10;75.20;;;;;;4991985;28;20014;-62
2022/12/02 11:22:03;;;;;;;12.52;6.13;;;6.00;75.10;;;;;;4979522;28;20142;-62
2022/12/02 11:24:29;;;;;;;16.95;6.97;;;6.10;75.10;;;;;;4984748;28;20026;-61
2022/12/02 11:27:03;;;;;;;23.20;6.85;;;6.10;75.00;;;;;;4993962;28;20521;-62
2022/12/02 11:29:29;;;;;;;12.85;6.03;;;6.10;75.00;;;;;;5012009;28;20476;-62
2022/12/02 11:32:20;;;;;;;14.43;7.07;;;6.10;74.90;;;;;;5002918;28;20049;-61
2022/12/02 11:34:52;;;;;;;10.80;5.75;;;6.10;74.70;;;;;;5001338;28;20448;-61
2022/12/02 11:37:34;;;;;;;17.13;6.70;;;6.10;74.90;;;;;;5000190;28;20042;-61
2022/12/02 11:40:21;;;;;;;10.65;5.78;;;6.10;74.80;;;;;;4994965;28;20042;-63
2022/12/02 11:42:47;;;;;;;12.27;5.93;;;6.10;74.70;;;;;;4972520;28;20089;-61
2022/12/02 11:45:35;;;;;;;12.27;5.90;;;6.10;74.80;;;;;;4997813;28;20034;-61
2022/12/02 11:48:02;;;;;;;12.40;6.10;;;6.20;74.70;;;;;;5002430;28;20033;-61
2022/12/02 11:50:41;;;;;;;9.10;4.80;;;6.10;74.80;;;;;;4990947;28;20068;-62
2022/12/02 11:53:15;;;;;;;15.88;6.57;;;6.20;74.70;;;;;;4990282;28;20470;-62
2022/12/02 11:55:44;;;;;;;13.35;8.05;;;6.20;74.60;;;;;;4988842;28;20064;-62
2022/12/02 11:58:27;;;;;;;13.93;6.40;;;6.20;74.70;;;;;;5000541;28;20070;-62
2022/12/02 12:01:05;;;;;;;10.95;6.93;;;6.30;74.50;;;;;;4989982;28;20474;-62
2022/12/02 12:03:32;;;;;;;15.88;6.43;;;6.40;74.40;;;;;;4993783;28;20425;-62
2022/12/02 12:06:14;;;;;;;17.08;7.47;;;6.40;74.40;;;;;;4989860;28;20481;-63
2022/12/02 12:08:47;;;;;;;14.18;6.22;;;6.50;74.20;;;;;;5001682;28;20108;-63
2022/12/02 12:11:26;;;;;;;12.55;6.78;;;6.60;74.10;;;;;;4997418;28;20018;-62
2022/12/02 12:14:03;;;;;;;12.18;6.38;;;6.60;73.80;;;;;;4997135;28;20026;-61
2022/12/02 12:16:31;;;;;;;14.15;5.78;;;6.60;73.60;;;;;;5001542;28;20123;-61
2022/12/02 12:18:59;;;;;;;16.90;7.10;;;6.60;73.60;;;;;;5001683;28;20114;-62
2022/12/02 12:21:31;;;;;;;10.27;5.35;;;6.60;73.60;;;;;;5003718;28;20397;-63
2022/12/02 12:24:25;;;;;;;10.38;6.00;;;6.70;73.60;;;;;;4996522;28;20124;-63
2022/12/02 12:26:59;;;;;;;11.63;5.30;;;6.80;73.50;;;;;;4996820;28;20512;-63
2022/12/02 12:29:29;;;;;;;11.88;4.75;;;6.80;73.30;;;;;;4996463;28;20165;-63
2022/12/02 12:31:55;;;;;;;12.55;5.13;;;6.80;73.30;;;;;;4998709;28;20031;-63
2022/12/02 12:34:21;;;;;;;8.57;4.88;;;6.80;73.30;;;;;;4989609;28;20044;-63
2022/12/02 12:36:47;;;;;;;17.35;6.75;;;6.80;73.40;;;;;;4990647;28;20058;-63
2022/12/02 12:39:13;;;;;;;14.20;5.75;;;6.80;73.20;;;;;;4989910;28;20085;-63
2022/12/02 12:41:39;;;;;;;15.75;6.13;;;6.70;73.30;;;;;;4990226;28;20473;-63
2022/12/02 12:44:05;;;;;;;11.70;5.25;;;6.70;73.40;;;;;;5018490;28;20039;-63
2022/12/02 12:46:30;;;;;;;13.55;6.53;;;6.70;73.40;;;;;;4993681;28;20065;-62
2022/12/02 12:48:57;;;;;;;18.00;6.20;;;6.70;73.70;;;;;;4992700;28;20058;-65
2022/12/02 12:51:23;;;;;;;7.05;4.72;;;6.60;73.20;;;;;;4996045;28;20168;-64
2022/12/02 12:53:48;;;;;;;10.57;5.50;;;6.70;73.30;;;;;;5026910;28;20113;-64
2022/12/02 12:56:14;;;;;;;13.38;4.75;;;6.60;73.30;;;;;;5001415;28;20112;-64